Terminal Aerodrome Forecast
Issued by NWS

Home | Current Version | Previous Version | Graphics & Text | Print | Product List | Glossary On
Versions: 1 2 3 4 5 6 7 8 9 10 11 12 13 14
414
FTUS43 KUNR 261720
TAFGCC
TAF
KGCC 261720Z 2618/2718 23013KT P6SM SCT200
     FM270300 20015KT P6SM BKN120=

USA.gov is the U.S. government's official web portal to all federal, state and local government web resources and services.